createdAt,value
2019-04-13T00:00:59.301Z,2.10
2019-04-13T00:03:26.287Z,2.10
2019-04-13T00:06:12.792Z,2.10
2019-04-13T00:08:39.817Z,2.00
2019-04-13T00:11:24.276Z,2.00
2019-04-13T00:13:51.361Z,2.00
2019-04-13T00:16:18.607Z,1.90
2019-04-13T00:18:46.045Z,1.90
2019-04-13T00:21:13.141Z,1.90
2019-04-13T00:23:40.179Z,1.90
2019-04-13T00:26:07.178Z,1.90
2019-04-13T00:28:34.151Z,2.00
2019-04-13T00:31:01.614Z,2.00
2019-04-13T00:33:28.758Z,1.90
2019-04-13T00:35:55.953Z,1.90
2019-04-13T00:38:23.242Z,2.00
2019-04-13T00:40:50.433Z,2.10
2019-04-13T00:43:17.442Z,2.00
2019-04-13T00:45:44.922Z,2.00
2019-04-13T00:48:11.965Z,2.00
2019-04-13T00:50:49.934Z,1.90
2019-04-13T00:53:16.951Z,1.90
2019-04-13T00:55:43.991Z,1.90
2019-04-13T00:58:11.346Z,1.90
2019-04-13T01:00:38.492Z,1.80
2019-04-13T01:03:05.613Z,1.90
2019-04-13T01:05:33.395Z,1.90
2019-04-13T01:08:00.383Z,1.90
2019-04-13T01:10:27.438Z,1.90
2019-04-13T01:12:54.629Z,1.80
2019-04-13T01:15:21.875Z,1.80
2019-04-13T01:17:48.870Z,1.80
2019-04-13T01:20:15.979Z,1.90
2019-04-13T01:22:42.970Z,1.80
2019-04-13T01:25:10.398Z,1.90
2019-04-13T01:27:37.731Z,1.90
2019-04-13T01:51:52.879Z,2.10
2019-04-13T01:54:20.868Z,2.10
2019-04-13T01:56:48.159Z,2.20
2019-04-13T01:59:15.197Z,2.20
2019-04-13T02:02:00.503Z,2.10
2019-04-13T02:04:35.946Z,2.20
2019-04-13T02:07:23.277Z,2.10
2019-04-13T02:10:07.011Z,2.20
2019-04-13T02:12:34.262Z,2.20
2019-04-13T02:15:01.244Z,2.20
2019-04-13T02:17:28.547Z,2.20
2019-04-13T02:19:55.615Z,2.20
2019-04-13T02:22:22.596Z,2.20
2019-04-13T02:24:49.565Z,2.30
2019-04-13T02:27:16.550Z,2.20
2019-04-13T02:29:44.209Z,2.20
2019-04-13T02:32:11.495Z,2.20
2019-04-13T02:34:38.458Z,2.20
2019-04-13T02:37:05.445Z,2.30
2019-04-13T02:39:32.479Z,2.30
2019-04-13T02:41:59.872Z,2.30
2019-04-13T02:44:27.718Z,2.30
2019-04-13T02:46:54.931Z,2.30
2019-04-13T02:49:21.922Z,2.30
2019-04-13T02:51:48.909Z,2.30
2019-04-13T02:54:16.290Z,2.30
2019-04-13T02:56:43.238Z,2.20
2019-04-13T02:59:11.568Z,2.30
2019-04-13T03:01:38.646Z,2.30
2019-04-13T03:04:05.852Z,2.30
2019-04-13T03:06:32.827Z,2.30
2019-04-13T03:08:59.917Z,2.30
2019-04-13T03:11:27.157Z,2.30
2019-04-13T03:13:54.143Z,2.30
2019-04-13T03:16:34.206Z,2.30
2019-04-13T03:19:08.834Z,2.30
2019-04-13T03:21:36.309Z,2.30
2019-04-13T03:24:03.528Z,2.40
2019-04-13T03:26:30.898Z,2.30
2019-04-13T03:28:59.109Z,2.30
2019-04-13T03:31:26.338Z,2.30
2019-04-13T03:33:53.343Z,2.30
2019-04-13T03:36:20.635Z,2.30
2019-04-13T03:38:47.680Z,2.30
2019-04-13T03:41:14.730Z,2.30
2019-04-13T03:43:42.002Z,2.30
2019-04-13T03:46:08.942Z,2.40
2019-04-13T03:48:35.991Z,2.40
2019-04-13T03:51:02.982Z,2.40
2019-04-13T03:53:29.980Z,2.30
2019-04-13T03:55:56.947Z,2.40
2019-04-13T03:58:23.947Z,2.40
2019-04-13T04:00:50.905Z,2.50
2019-04-13T04:03:18.436Z,2.40
2019-04-13T04:05:45.512Z,2.40
2019-04-13T04:08:12.611Z,2.40
2019-04-13T04:10:39.667Z,2.40
2019-04-13T04:13:06.640Z,2.40
2019-04-13T04:15:34.054Z,2.40
2019-04-13T04:18:01.368Z,2.40
2019-04-13T04:20:28.394Z,2.40
2019-04-13T04:22:55.364Z,2.40
2019-04-13T04:25:24.119Z,2.40
2019-04-13T04:27:51.087Z,2.50
2019-04-13T04:30:18.186Z,2.40
2019-04-13T04:32:45.195Z,2.50
2019-04-13T04:35:12.298Z,2.40
2019-04-13T04:37:39.299Z,2.50
2019-04-13T04:40:07.171Z,2.50
2019-04-13T04:42:34.162Z,2.50
2019-04-13T04:45:01.125Z,2.40
2019-04-13T04:47:28.091Z,2.40
2019-04-13T04:49:55.455Z,2.50
2019-04-13T04:52:22.471Z,2.50
2019-04-13T04:54:49.527Z,2.50
2019-04-13T04:57:16.960Z,2.50
2019-04-13T04:59:44.209Z,2.40
2019-04-13T05:02:11.179Z,2.50
2019-04-13T05:04:38.182Z,2.50
2019-04-13T05:07:05.448Z,2.50
2019-04-13T05:09:32.539Z,2.60
2019-04-13T05:12:00.135Z,2.50
2019-04-13T05:14:27.310Z,2.60
2019-04-13T05:16:54.402Z,2.50
2019-04-13T05:19:21.559Z,2.60
2019-04-13T05:21:48.615Z,2.50
2019-04-13T05:24:15.574Z,2.60
2019-04-13T05:26:42.581Z,2.70
2019-04-13T05:29:09.558Z,2.70
2019-04-13T05:31:36.619Z,2.70
2019-04-13T05:34:03.686Z,2.70
2019-04-13T05:36:30.678Z,2.60
2019-04-13T05:38:58.842Z,2.60
2019-04-13T05:41:25.806Z,2.50
2019-04-13T05:43:52.781Z,2.70
2019-04-13T05:46:19.739Z,2.70
2019-04-13T05:48:46.843Z,2.70
2019-04-13T05:51:14.134Z,2.70
2019-04-13T05:53:41.578Z,2.60
2019-04-13T05:56:08.549Z,2.70
2019-04-13T05:58:35.975Z,2.80
2019-04-13T06:01:03.051Z,2.80
2019-04-13T06:03:30.059Z,2.90
2019-04-13T06:05:57.182Z,2.80
2019-04-13T06:08:24.239Z,2.90
2019-04-13T06:10:51.324Z,2.80
2019-04-13T06:13:18.743Z,2.80
2019-04-13T06:15:45.727Z,2.70
2019-04-13T06:18:20.692Z,2.70
2019-04-13T06:20:41.981Z,2.70
2019-04-13T06:23:08.946Z,2.80
2019-04-13T06:25:35.957Z,2.90
2019-04-13T06:28:03.037Z,2.90
2019-04-13T06:30:52.319Z,2.90
2019-04-13T06:33:50.869Z,3.00
2019-04-13T06:36:17.867Z,3.10
2019-04-13T06:38:44.835Z,3.10
2019-04-13T06:41:12.194Z,3.10
2019-04-13T06:43:39.413Z,3.10
2019-04-13T06:46:06.610Z,3.10
2019-04-13T06:48:34.619Z,3.10
2019-04-13T06:51:02.806Z,3.20
2019-04-13T06:53:29.855Z,3.30
2019-04-13T06:55:57.107Z,3.40
2019-04-13T06:58:24.101Z,3.40
2019-04-13T07:00:51.498Z,3.50
2019-04-13T07:03:18.450Z,3.60
2019-04-13T07:05:45.444Z,3.60
2019-04-13T07:08:38.225Z,3.70
2019-04-13T07:11:25.409Z,3.70
2019-04-13T07:13:54.954Z,3.70
2019-04-13T07:16:54.041Z,3.60
2019-04-13T07:19:28.497Z,3.60
2019-04-13T07:21:55.657Z,3.70
2019-04-13T07:24:22.731Z,3.70
2019-04-13T07:26:49.709Z,3.80
2019-04-13T07:29:16.824Z,3.90
2019-04-13T07:31:44.051Z,4.10
2019-04-13T07:34:11.146Z,4.70
2019-04-13T07:36:41.506Z,4.90
2019-04-13T07:39:07.914Z,4.90
2019-04-13T07:41:34.942Z,4.90
2019-04-13T07:44:02.902Z,5.10
2019-04-13T07:46:38.227Z,5.20
2019-04-13T07:49:15.796Z,5.00
2019-04-13T07:52:17.725Z,4.60
2019-04-13T07:54:45.341Z,4.50
2019-04-13T07:57:13.411Z,4.60
2019-04-13T07:59:40.763Z,5.00
2019-04-13T08:02:08.054Z,4.80
2019-04-13T08:04:35.038Z,4.70
2019-04-13T08:07:06.080Z,4.50
2019-04-13T08:09:31.313Z,4.40
2019-04-13T08:11:58.372Z,4.40
2019-04-13T08:14:29.712Z,4.50
2019-04-13T08:16:57.478Z,4.40
2019-04-13T08:19:26.570Z,4.50
2019-04-13T08:21:54.895Z,4.40
2019-04-13T08:24:22.714Z,4.50
2019-04-13T08:26:49.708Z,4.40
2019-04-13T08:29:17.318Z,4.50
2019-04-13T08:31:44.771Z,4.50
2019-04-13T08:34:11.935Z,4.50
2019-04-13T08:36:39.235Z,4.40
2019-04-13T08:39:06.483Z,4.50
2019-04-13T08:41:33.581Z,4.60
2019-04-13T08:44:05.514Z,4.80
2019-04-13T08:46:30.253Z,5.30
2019-04-13T08:48:57.693Z,5.80
2019-04-13T08:51:25.010Z,5.80
2019-04-13T08:53:52.258Z,5.90
2019-04-13T08:56:19.343Z,6.20
2019-04-13T08:58:47.850Z,6.20
2019-04-13T09:01:15.866Z,6.20
2019-04-13T09:03:43.702Z,6.00
2019-04-13T09:06:10.895Z,6.00
2019-04-13T09:08:38.620Z,6.30
2019-04-13T09:11:06.437Z,6.60
2019-04-13T09:13:34.471Z,6.60
2019-04-13T09:16:02.750Z,6.80
2019-04-13T09:18:44.280Z,7.10
2019-04-13T09:21:16.680Z,7.00
2019-04-13T09:23:47.527Z,6.80
2019-04-13T09:26:12.880Z,6.70
2019-04-13T09:28:43.094Z,6.50
2019-04-13T09:31:10.931Z,6.40
2019-04-13T09:33:38.226Z,6.30
2019-04-13T09:36:05.458Z,6.40
2019-04-13T09:38:42.299Z,6.70
2019-04-13T09:41:03.403Z,6.90
2019-04-13T09:43:37.410Z,7.00
2019-04-13T09:46:06.454Z,7.10
2019-04-13T09:48:34.153Z,6.90
2019-04-13T09:51:01.219Z,6.80
2019-04-13T09:53:28.317Z,6.50
2019-04-13T09:55:55.589Z,6.30
2019-04-13T09:58:23.102Z,6.40
2019-04-13T10:00:52.478Z,6.70
2019-04-13T10:03:19.291Z,7.00
2019-04-13T10:05:46.380Z,6.90
2019-04-13T10:08:13.366Z,7.00
2019-04-13T10:10:41.842Z,7.10
2019-04-13T10:13:27.530Z,7.10
2019-04-13T10:16:12.966Z,6.90
2019-04-13T10:18:44.399Z,6.60
2019-04-13T10:21:13.122Z,6.60
2019-04-13T10:23:40.404Z,6.90
2019-04-13T10:26:11.301Z,7.20
2019-04-13T10:28:36.622Z,7.10
2019-04-13T10:31:03.936Z,7.00
2019-04-13T10:33:30.952Z,6.80
2019-04-13T10:35:57.997Z,6.70
2019-04-13T10:38:25.118Z,6.70
2019-04-13T10:40:52.404Z,6.70
2019-04-13T10:43:19.979Z,6.60
2019-04-13T10:46:05.368Z,6.60
2019-04-13T10:48:41.451Z,6.50
2019-04-13T10:51:14.080Z,6.10
2019-04-13T10:53:41.467Z,6.10
2019-04-13T10:56:08.728Z,6.20
2019-04-13T10:58:36.112Z,6.20
2019-04-13T11:01:03.599Z,6.20
2019-04-13T11:03:30.971Z,6.20
2019-04-13T11:05:58.077Z,6.50
2019-04-13T11:08:25.415Z,6.70
2019-04-13T11:10:52.631Z,6.70
2019-04-13T11:13:19.734Z,6.70
2019-04-13T11:15:47.033Z,6.80
2019-04-13T11:18:14.466Z,7.00
2019-04-13T11:20:45.078Z,7.30
2019-04-13T11:23:10.905Z,7.80
2019-04-13T11:25:38.381Z,7.90
2019-04-13T11:28:07.622Z,7.60
2019-04-13T11:30:34.586Z,7.40
2019-04-13T11:33:02.067Z,7.30
2019-04-13T11:35:29.154Z,7.20
2019-04-13T11:37:56.303Z,7.40
2019-04-13T11:40:23.611Z,7.50
2019-04-13T11:43:02.410Z,7.60
2019-04-13T11:45:47.893Z,7.60
2019-04-13T11:48:37.737Z,7.80
2019-04-13T11:51:15.078Z,7.90
2019-04-13T11:53:43.507Z,8.30
2019-04-13T11:56:10.778Z,8.70
2019-04-13T11:58:37.793Z,8.70
2019-04-13T12:01:30.211Z,8.40
2019-04-13T12:04:19.702Z,8.20
2019-04-13T12:06:53.231Z,7.50
2019-04-13T12:09:50.130Z,7.30
2019-04-13T12:12:31.355Z,7.10
2019-04-13T12:15:09.993Z,7.10
2019-04-13T12:17:51.121Z,7.30
2019-04-13T12:20:27.646Z,7.40
2019-04-13T12:22:54.958Z,7.70
2019-04-13T12:25:22.095Z,7.90
2019-04-13T12:27:49.126Z,7.90
2019-04-13T12:30:21.512Z,7.80
2019-04-13T12:32:48.516Z,7.60
2019-04-13T12:35:16.034Z,7.10
2019-04-13T12:37:43.383Z,6.80
2019-04-13T12:40:19.949Z,6.70
2019-04-13T12:42:47.426Z,6.50
2019-04-13T12:45:15.056Z,6.50
2019-04-13T12:47:45.373Z,6.70
2019-04-13T12:50:11.416Z,7.00
2019-04-13T12:52:38.450Z,7.20
2019-04-13T12:55:06.054Z,7.60
2019-04-13T12:57:34.366Z,7.70
2019-04-13T13:00:01.760Z,7.90
2019-04-13T13:02:55.619Z,7.90
2019-04-13T13:05:25.103Z,8.00
2019-04-13T13:07:52.172Z,8.20
2019-04-13T13:10:24.349Z,8.40
2019-04-13T13:12:48.856Z,9.10
2019-04-13T13:15:16.079Z,9.20
2019-04-13T13:17:43.464Z,9.20
2019-04-13T13:20:10.832Z,9.10
2019-04-13T13:22:38.108Z,9.00
2019-04-13T13:25:05.286Z,8.90
2019-04-13T13:27:32.615Z,9.00
2019-04-13T13:30:00.058Z,8.80
2019-04-13T13:32:27.599Z,8.70
2019-04-13T13:35:00.799Z,9.00
2019-04-13T13:37:34.915Z,9.20
2019-04-13T13:40:09.728Z,9.00
2019-04-13T13:42:38.566Z,8.80
2019-04-13T13:45:07.807Z,8.70
2019-04-13T13:47:36.470Z,8.70
2019-04-13T13:50:06.703Z,8.60
2019-04-13T13:52:35.549Z,8.50
2019-04-13T13:55:05.603Z,8.30
2019-04-13T13:57:38.902Z,8.10
2019-04-13T14:00:13.968Z,8.10
2019-04-13T14:02:41.922Z,7.90
2019-04-13T14:05:12.266Z,7.90
2019-04-13T14:07:50.256Z,7.80
2019-04-13T14:10:19.931Z,7.80
2019-04-13T14:16:23.516Z,8.10
2019-04-13T14:18:51.221Z,8.30
2019-04-13T14:21:19.168Z,8.40
2019-04-13T14:23:46.901Z,8.20
2019-04-13T14:26:14.573Z,7.80
2019-04-13T14:28:44.547Z,7.50
2019-04-13T14:31:17.965Z,7.30
2019-04-13T14:33:46.131Z,7.10
2019-04-13T14:36:13.730Z,7.00
2019-04-13T14:38:41.046Z,6.90
2019-04-13T14:41:09.972Z,6.80
2019-04-13T14:43:38.503Z,6.80
2019-04-13T14:46:07.533Z,6.80
2019-04-13T14:48:35.055Z,6.80
2019-04-13T14:51:02.317Z,6.70
2019-04-13T14:53:29.670Z,6.70
2019-04-13T14:55:58.067Z,6.80
2019-04-13T14:58:25.454Z,6.80
2019-04-13T15:00:53.018Z,6.80
2019-04-13T15:03:20.470Z,6.90
2019-04-13T15:05:48.227Z,6.90
2019-04-13T15:08:16.323Z,6.90
2019-04-13T15:10:43.658Z,6.80
2019-04-13T15:13:10.654Z,6.70
2019-04-13T15:15:41.202Z,6.80
2019-04-13T15:18:29.029Z,6.90
2019-04-13T15:21:06.902Z,7.00
2019-04-13T15:23:36.606Z,7.20
2019-04-13T15:26:03.875Z,7.20
2019-04-13T15:28:35.244Z,7.20
2019-04-13T15:34:27.960Z,7.30
2019-04-13T15:37:06.702Z,7.40
2019-04-13T15:39:38.804Z,7.40
2019-04-13T15:42:13.995Z,7.40
2019-04-13T15:44:35.202Z,7.50
2019-04-13T15:47:05.968Z,7.40
2019-04-13T15:49:31.723Z,7.30
2019-04-13T15:52:00.051Z,7.40
2019-04-13T15:54:28.658Z,7.50
2019-04-13T15:56:57.178Z,7.40
2019-04-13T15:59:24.681Z,7.60
2019-04-13T16:01:52.279Z,7.90
2019-04-13T16:04:20.774Z,8.40
2019-04-13T16:06:48.699Z,8.80
2019-04-13T16:09:53.862Z,9.20
2019-04-13T16:12:23.972Z,9.50
2019-04-13T16:14:51.009Z,9.10
2019-04-13T16:17:18.762Z,8.50
2019-04-13T16:19:46.069Z,7.80
2019-04-13T16:22:13.513Z,7.30
2019-04-13T16:24:41.525Z,7.00
2019-04-13T16:27:09.994Z,6.90
2019-04-13T16:30:08.849Z,6.70
2019-04-13T16:32:49.129Z,6.60
2019-04-13T16:35:31.458Z,6.60
2019-04-13T16:37:59.227Z,6.50
2019-04-13T16:40:27.092Z,6.50
2019-04-13T16:42:55.180Z,6.40
2019-04-13T16:45:44.385Z,6.40
2019-04-13T16:48:31.777Z,6.40
2019-04-13T16:51:23.486Z,6.40
2019-04-13T16:54:00.847Z,6.40
2019-04-13T16:56:31.741Z,6.40
2019-04-13T16:59:15.761Z,6.30
2019-04-13T17:02:02.531Z,6.30
2019-04-13T17:04:37.939Z,6.40
2019-04-13T17:07:05.166Z,6.30
2019-04-13T17:09:32.546Z,6.30
2019-04-13T17:12:15.902Z,6.30
2019-04-13T17:14:31.357Z,6.20
2019-04-13T17:16:59.163Z,6.30
2019-04-13T17:19:33.378Z,6.40
2019-04-13T17:22:06.462Z,6.50
2019-04-13T17:24:59.752Z,6.40
2019-04-13T17:28:03.624Z,6.30
2019-04-13T17:30:30.105Z,6.30
2019-04-13T17:33:02.085Z,6.30
2019-04-13T17:35:29.472Z,6.20
2019-04-13T17:37:57.012Z,6.20
2019-04-13T17:40:28.321Z,6.00
2019-04-13T17:43:22.314Z,6.00
2019-04-13T17:46:07.644Z,6.00
2019-04-13T17:48:53.305Z,6.00
2019-04-13T17:51:39.640Z,5.80
2019-04-13T17:54:25.360Z,5.70
2019-04-13T17:56:53.512Z,5.70
2019-04-13T17:59:40.722Z,5.60
2019-04-13T18:02:34.499Z,5.60
2019-04-13T18:05:27.181Z,5.70
2019-04-13T18:08:13.674Z,5.70
2019-04-13T18:10:53.103Z,5.60
2019-04-13T18:14:01.109Z,5.60
2019-04-13T18:16:46.468Z,5.50
2019-04-13T18:19:16.961Z,5.40
2019-04-13T18:21:45.570Z,5.30
2019-04-13T18:24:13.436Z,5.30
2019-04-13T18:26:41.415Z,5.30
2019-04-13T18:29:09.508Z,5.30
2019-04-13T18:31:37.834Z,5.40
2019-04-13T18:34:06.138Z,5.40
2019-04-13T18:36:34.255Z,5.30
2019-04-13T18:39:02.657Z,5.30
2019-04-13T18:41:33.059Z,5.20
2019-04-13T18:44:00.684Z,5.30
2019-04-13T18:46:28.302Z,5.20
2019-04-13T18:48:55.467Z,5.10
2019-04-13T18:51:23.409Z,5.10
2019-04-13T18:53:50.883Z,5.20
2019-04-13T18:56:18.884Z,5.10
2019-04-13T18:58:46.238Z,5.10
2019-04-13T19:01:13.752Z,5.10
2019-04-13T19:03:41.007Z,5.00
2019-04-13T19:06:08.252Z,4.90
2019-04-13T19:08:35.584Z,4.90
2019-04-13T19:11:02.734Z,4.90
2019-04-13T19:13:29.826Z,4.90
2019-04-13T19:15:56.829Z,4.90
2019-04-13T19:18:23.990Z,4.90
2019-04-13T19:20:51.490Z,4.90
2019-04-13T19:23:18.480Z,4.90
2019-04-13T19:25:46.022Z,4.80
2019-04-13T19:28:13.253Z,4.90
2019-04-13T19:30:40.808Z,4.90
2019-04-13T19:33:08.091Z,4.90
2019-04-13T19:35:35.259Z,4.90
2019-04-13T19:38:03.585Z,4.90
2019-04-13T19:40:31.020Z,4.90
2019-04-13T19:42:57.987Z,4.90
2019-04-13T19:45:25.634Z,5.00
2019-04-13T19:47:52.647Z,4.90
2019-04-13T19:50:19.839Z,5.00
2019-04-13T19:53:13.555Z,4.90
2019-04-13T19:55:40.763Z,4.90
2019-04-13T19:58:08.629Z,4.90
2019-04-13T20:00:39.978Z,4.90
2019-04-13T20:03:07.288Z,4.90
2019-04-13T20:05:34.837Z,5.00
2019-04-13T20:08:02.419Z,5.00
2019-04-13T20:10:29.560Z,4.80
2019-04-13T20:12:57.790Z,4.80
2019-04-13T20:15:25.289Z,4.80
2019-04-13T20:17:52.547Z,4.80
2019-04-13T20:20:19.763Z,4.80
2019-04-13T20:22:47.226Z,4.80
2019-04-13T20:25:15.658Z,4.70
2019-04-13T20:27:43.695Z,4.60
2019-04-13T20:30:11.478Z,4.60
2019-04-13T20:32:38.529Z,4.50
2019-04-13T20:35:06.407Z,4.50
2019-04-13T20:37:35.920Z,4.50
2019-04-13T20:40:09.823Z,4.50
2019-04-13T20:42:37.336Z,4.50
2019-04-13T20:45:05.113Z,4.50
2019-04-13T20:47:33.007Z,4.50
2019-04-13T20:50:00.594Z,4.50
2019-04-13T20:52:28.741Z,4.50
2019-04-13T20:54:56.347Z,4.40
2019-04-13T20:57:24.244Z,4.30
2019-04-13T20:59:52.137Z,4.30
2019-04-13T21:02:19.818Z,4.20
2019-04-13T21:04:48.089Z,4.20
2019-04-13T21:07:16.006Z,4.20
2019-04-13T21:09:43.392Z,4.10
2019-04-13T21:12:11.952Z,4.10
2019-04-13T21:14:43.716Z,4.00
2019-04-13T21:17:09.211Z,4.10
2019-04-13T21:19:37.053Z,4.10
2019-04-13T21:22:04.921Z,4.10
2019-04-13T21:24:33.008Z,4.10
2019-04-13T21:27:01.126Z,4.10
2019-04-13T21:29:29.201Z,4.10
2019-04-13T21:31:56.583Z,4.00
2019-04-13T21:34:24.360Z,4.00
2019-04-13T21:36:52.092Z,4.00
2019-04-13T21:39:20.097Z,4.00
2019-04-13T21:41:47.727Z,3.90
2019-04-13T21:44:23.700Z,3.90
2019-04-13T21:46:44.030Z,4.00
2019-04-13T21:49:12.126Z,3.90
2019-04-13T21:51:55.104Z,3.90
2019-04-13T21:54:29.996Z,3.90
2019-04-13T21:56:58.094Z,3.80
2019-04-13T21:59:25.985Z,3.80
2019-04-13T22:02:18.647Z,3.80
2019-04-13T22:04:45.943Z,3.80
2019-04-13T22:07:13.629Z,3.70
2019-04-13T22:09:41.293Z,3.70
2019-04-13T22:12:09.040Z,3.70
2019-04-13T22:14:45.147Z,3.70
2019-04-13T22:17:05.449Z,3.70
2019-04-13T22:19:33.262Z,3.70
2019-04-13T22:22:01.153Z,3.70
2019-04-13T22:24:28.920Z,3.60
2019-04-13T22:26:56.520Z,3.60
2019-04-13T22:29:29.696Z,3.60
2019-04-13T22:32:09.933Z,3.60
2019-04-13T22:34:44.689Z,3.60
2019-04-13T22:37:12.462Z,3.60
2019-04-13T22:39:44.274Z,3.50
2019-04-13T22:42:12.324Z,3.60
2019-04-13T22:44:49.529Z,3.50
2019-04-13T22:47:10.454Z,3.50
2019-04-13T22:49:47.328Z,3.60
2019-04-13T22:52:43.056Z,3.50
2019-04-13T22:55:37.277Z,3.40
2019-04-13T22:58:05.101Z,3.40
2019-04-13T23:00:41.220Z,3.50
2019-04-13T23:03:14.054Z,3.50
2019-04-13T23:05:43.471Z,3.60
2019-04-13T23:08:11.808Z,3.50
2019-04-13T23:10:39.931Z,3.50
2019-04-13T23:13:08.190Z,3.50
2019-04-13T23:15:38.661Z,3.50
2019-04-13T23:18:05.736Z,3.40
2019-04-13T23:20:34.233Z,3.40
2019-04-13T23:23:02.803Z,3.30
2019-04-13T23:25:31.208Z,3.30
2019-04-13T23:27:59.104Z,3.20
2019-04-13T23:30:26.998Z,3.30
2019-04-13T23:32:55.452Z,3.20
2019-04-13T23:35:23.554Z,3.20
2019-04-13T23:37:52.021Z,3.10
2019-04-13T23:40:20.292Z,3.10
2019-04-13T23:42:48.616Z,3.10
2019-04-13T23:45:26.989Z,3.10
2019-04-13T23:47:49.086Z,3.10
2019-04-13T23:50:17.783Z,3.10
2019-04-13T23:52:45.799Z,3.10
2019-04-13T23:55:14.338Z,3.20
2019-04-13T23:57:57.578Z,3.10
